Time;durP1;ratioP1;P1;durP2;ratioP2;P2;SDS_P1;SDS_P2;PMS_P1;PMS_P2;Temp;Humidity;BMP_temperature;BMP_pressure;BME280_temperature;BME280_humidity;BME280_pressure;Samples;Min_cycle;Max_cycle;Signal;HPM_P1;HPM_P2
2022/11/12 00:00:49;;;;;;;36.60;18.92;;;;;;;7.58;92.34;100535.31;1742881;81;21522;-49
2022/11/12 00:03:15;;;;;;;36.70;18.12;;;;;;;7.56;92.27;100530.56;1751140;81;21026;-46
2022/11/12 00:05:41;;;;;;;33.25;17.67;;;;;;;7.55;92.33;100528.86;1747223;81;21061;-48
2022/11/12 00:08:07;;;;;;;37.50;18.10;;;;;;;7.54;92.31;100533.67;1747055;81;21532;-46
2022/11/12 00:10:33;;;;;;;34.65;17.92;;;;;;;7.53;92.31;100537.63;1741022;81;21019;-45
2022/11/12 00:12:59;;;;;;;31.48;17.65;;;;;;;7.50;92.47;100534.19;1745263;81;21005;-46
2022/11/12 00:15:25;;;;;;;36.70;18.85;;;;;;;7.50;92.37;100530.72;1752131;81;20994;-46
2022/11/12 00:17:51;;;;;;;35.17;17.37;;;;;;;7.48;92.21;100535.13;1742714;81;21009;-49
2022/11/12 00:20:18;;;;;;;37.23;18.20;;;;;;;7.46;92.47;100539.55;1744517;81;21006;-45
2022/11/12 00:22:43;;;;;;;40.55;18.42;;;;;;;7.42;92.58;100536.13;1746959;81;21021;-49
2022/11/12 00:25:09;;;;;;;40.28;18.32;;;;;;;7.40;92.24;100531.35;1738689;81;21026;-48
2022/11/12 00:27:35;;;;;;;43.98;18.70;;;;;;;7.37;92.61;100531.87;1746668;81;21059;-45
2022/11/12 00:30:01;;;;;;;32.83;18.35;;;;;;;7.36;92.60;100536.70;1746076;81;21532;-47
2022/11/12 00:32:27;;;;;;;33.73;19.07;;;;;;;7.35;92.42;100532.35;1737241;81;20982;-46
2022/11/12 00:34:52;;;;;;;37.67;19.20;;;;;;;7.27;92.26;100530.77;1749701;81;21077;-44
2022/11/12 00:37:19;;;;;;;41.50;20.20;;;;;;;7.24;92.60;100532.16;1749446;81;21018;-46
2022/11/12 00:39:45;;;;;;;40.15;20.30;;;;;;;7.25;92.46;100533.86;1749219;81;21023;-45
2022/11/12 00:42:11;;;;;;;38.33;20.80;;;;;;;7.24;92.48;100534.78;1742974;81;21077;-46
2022/11/12 00:44:37;;;;;;;38.15;20.30;;;;;;;7.21;92.69;100533.98;1736635;81;21488;-45
2022/11/12 00:47:03;;;;;;;38.20;19.67;;;;;;;7.19;92.64;100542.31;1748291;81;21011;-47
2022/11/12 00:49:29;;;;;;;41.80;19.85;;;;;;;7.16;92.76;100543.22;1757256;81;21018;-49
2022/11/12 00:51:54;;;;;;;40.58;21.02;;;;;;;7.14;92.34;100543.70;1736421;81;20998;-46
2022/11/12 00:54:20;;;;;;;40.98;20.52;;;;;;;7.09;92.63;100537.70;1751028;81;21022;-49
2022/11/12 00:56:47;;;;;;;44.03;20.80;;;;;;;7.07;93.21;100544.73;1745073;81;21010;-44
2022/11/12 00:59:13;;;;;;;45.73;20.10;;;;;;;7.05;92.92;100539.98;1739218;81;21001;-45
2022/11/12 01:01:40;;;;;;;40.98;22.60;;;;;;;7.02;92.57;100540.03;1749961;81;21010;-46
2022/11/12 01:04:06;;;;;;;51.42;22.13;;;;;;;6.99;92.62;100536.20;1744325;81;21530;-45
2022/11/12 01:06:32;;;;;;;43.80;22.22;;;;;;;6.92;92.65;100532.37;1751081;81;21496;-46
2022/11/12 01:08:57;;;;;;;51.30;23.47;;;;;;;6.88;92.92;100534.64;1748974;81;21008;-47
2022/11/12 01:11:27;;;;;;;49.05;24.90;;;;;;;6.85;92.96;100528.16;1742821;81;21037;-45
2022/11/12 01:13:57;;;;;;;51.53;25.40;;;;;;;6.83;92.94;100527.79;1742516;81;21009;-48
2022/11/12 01:16:28;;;;;;;51.08;24.27;;;;;;;6.76;93.20;100528.34;1740305;81;21472;-45
2022/11/12 01:19:00;;;;;;;52.13;26.27;;;;;;;6.77;93.09;100527.47;1750320;81;21022;-44
2022/11/12 01:21:29;;;;;;;52.20;26.25;;;;;;;6.76;92.79;100527.04;1742580;81;20998;-49
2022/11/12 01:23:58;;;;;;;55.78;27.87;;;;;;;6.71;92.93;100527.57;1757685;81;21014;-48
2022/11/12 01:26:27;;;;;;;49.38;26.23;;;;;;;6.72;92.87;100526.70;1746758;81;21017;-47
2022/11/12 01:28:54;;;;;;;51.28;26.42;;;;;;;6.66;93.15;100526.38;1742927;81;21053;-49
2022/11/12 01:31:27;;;;;;;52.78;26.45;;;;;;;6.62;92.99;100526.02;1751181;81;21054;-44
2022/11/12 01:34:00;;;;;;;51.63;26.20;;;;;;;6.62;93.05;100522.52;1750428;81;21038;-48
2022/11/12 01:36:29;;;;;;;47.93;26.73;;;;;;;6.58;93.18;100520.88;1751450;81;20994;-43
2022/11/12 01:38:55;;;;;;;51.48;26.33;;;;;;;6.57;93.40;100523.05;1744439;81;21014;-46
2022/11/12 01:41:27;;;;;;;45.78;24.95;;;;;;;6.53;93.55;100522.25;1749924;81;21009;-47
2022/11/12 01:44:09;;;;;;;47.48;25.50;;;;;;;6.51;93.52;100518.80;1742562;81;21045;-46
2022/11/12 01:46:40;;;;;;;51.10;26.10;;;;;;;6.50;93.21;100518.41;1746876;81;21021;-44
2022/11/12 01:49:12;;;;;;;57.48;27.05;;;;;;;6.49;93.67;100521.90;1738109;81;21042;-46
2022/11/12 01:51:41;;;;;;;48.55;26.05;;;;;;;6.48;93.66;100519.73;1745008;81;21063;-45
2022/11/12 01:54:11;;;;;;;51.77;25.97;;;;;;;6.48;93.64;100511.91;1746845;81;21061;-45
2022/11/12 01:56:37;;;;;;;47.08;24.65;;;;;;;6.53;93.54;100515.72;1747167;81;21025;-43
2022/11/12 01:59:08;;;;;;;49.65;24.80;;;;;;;6.51;93.60;100521.00;1742819;81;21021;-47
2022/11/12 02:01:36;;;;;;;52.67;24.63;;;;;;;6.50;93.44;100522.33;1743683;81;21550;-43
2022/11/12 02:04:03;;;;;;;49.70;23.45;;;;;;;6.48;93.64;100530.19;1747248;81;20982;-46
2022/11/12 02:06:31;;;;;;;53.40;24.15;;;;;;;6.47;93.51;100527.60;1742787;81;21027;-42
2022/11/12 02:08:57;;;;;;;45.92;22.37;;;;;;;6.43;93.36;100528.10;1742774;81;21023;-51
2022/11/12 02:11:22;;;;;;;45.10;21.57;;;;;;;6.40;93.57;100528.16;1746698;81;21001;-45
2022/11/12 02:13:59;;;;;;;40.80;22.50;;;;;;;6.41;93.60;100537.73;1742771;81;21014;-45
2022/11/12 02:16:42;;;;;;;45.95;22.75;;;;;;;6.40;93.88;100533.38;1742631;81;21031;-45
2022/11/12 02:19:12;;;;;;;39.85;21.55;;;;;;;6.39;93.77;100528.20;1736553;81;21033;-46
2022/11/12 02:21:39;;;;;;;40.40;22.27;;;;;;;6.38;94.07;100529.08;1741733;81;21020;-46
2022/11/12 02:24:15;;;;;;;41.83;21.68;;;;;;;6.38;93.69;100524.70;1747002;81;21015;-44
2022/11/12 02:26:45;;;;;;;38.60;21.50;;;;;;;6.33;94.38;100531.34;1736636;81;21535;-44
2022/11/12 02:29:11;;;;;;;44.03;21.25;;;;;;;6.33;94.38;100531.34;1740125;81;21752;-44
2022/11/12 02:31:37;;;;;;;41.33;20.17;;;;;;;6.34;94.21;100535.66;1736622;81;21022;-46
2022/11/12 02:34:03;;;;;;;43.83;21.75;;;;;;;6.35;94.12;100531.31;1746744;81;21066;-48
2022/11/12 02:36:29;;;;;;;39.23;20.43;;;;;;;6.34;93.98;100528.27;1746685;81;21008;-45
2022/11/12 02:38:56;;;;;;;40.73;21.33;;;;;;;6.31;94.07;100534.43;1740685;81;21009;-47
2022/11/12 02:43:31;;;;;;;40.05;20.02;;;;;;;6.28;94.26;100545.37;1818509;79;23003;-44
2022/11/12 02:45:57;;;;;;;39.83;20.43;;;;;;;6.19;94.82;100552.07;1792979;80;21607;-44
2022/11/12 02:48:23;;;;;;;41.42;21.35;;;;;;;6.19;94.34;100555.53;1792982;80;21487;-47
2022/11/12 02:50:48;;;;;;;47.55;23.40;;;;;;;6.16;94.39;100555.58;1793100;80;20963;-46
2022/11/12 02:53:14;;;;;;;51.60;24.02;;;;;;;6.16;94.08;100556.88;1792994;80;20986;-46
2022/11/12 02:55:42;;;;;;;47.00;22.73;;;;;;;6.12;94.04;100550.84;1792993;80;21018;-42
2022/11/12 02:58:08;;;;;;;50.28;23.47;;;;;;;6.14;93.58;100552.98;1792993;80;21578;-42
2022/11/12 03:00:34;;;;;;;39.50;22.30;;;;;;;6.15;93.54;100559.95;1792980;80;20994;-44
2022/11/12 03:03:00;;;;;;;50.75;22.85;;;;;;;6.14;93.67;100555.59;1792849;80;20990;-43
2022/11/12 03:05:32;;;;;;;46.80;22.58;;;;;;;6.15;93.43;100561.25;1793013;80;21038;-45
2022/11/12 03:08:02;;;;;;;47.95;22.07;;;;;;;6.18;93.31;100564.24;1792988;80;20994;-46
2022/11/12 03:10:28;;;;;;;49.40;22.25;;;;;;;6.17;93.09;100563.84;1792994;80;20971;-48
2022/11/12 03:13:00;;;;;;;36.23;19.77;;;;;;;6.17;93.61;100564.27;1793271;80;21033;-48
2022/11/12 03:15:27;;;;;;;42.78;21.93;;;;;;;6.19;93.51;100565.98;1792947;80;20995;-43
2022/11/12 03:17:53;;;;;;;44.93;20.95;;;;;;;6.23;93.72;100565.48;1793204;80;20994;-44
2022/11/12 03:20:19;;;;;;;37.03;20.05;;;;;;;6.23;93.74;100570.26;1792990;80;21026;-47
2022/11/12 03:23:01;;;;;;;37.58;20.15;;;;;;;6.27;93.60;100558.01;1792925;80;20959;-43
2022/11/12 03:25:28;;;;;;;37.80;20.08;;;;;;;6.29;93.33;100563.64;1793144;80;21046;-45
2022/11/12 03:28:00;;;;;;;32.55;18.95;;;;;;;6.32;93.31;100564.88;1793054;80;20998;-46
2022/11/12 03:30:32;;;;;;;36.42;18.92;;;;;;;6.36;93.21;100557.84;1791701;80;21018;-44
2022/11/12 03:32:58;;;;;;;38.42;19.67;;;;;;;6.40;93.13;100563.42;1792982;80;20998;-46
2022/11/12 03:35:25;;;;;;;35.70;19.17;;;;;;;6.38;93.14;100560.44;1792960;80;20991;-45
2022/11/12 03:37:52;;;;;;;41.25;18.62;;;;;;;6.38;93.13;100566.52;1793098;80;20990;-46
2022/11/12 03:40:18;;;;;;;38.92;18.80;;;;;;;6.44;93.18;100563.81;1793052;80;20987;-45
2022/11/12 03:42:48;;;;;;;37.53;18.62;;;;;;;6.47;93.14;100560.27;1785151;80;21465;-44
2022/11/12 03:45:15;;;;;;;36.80;19.35;;;;;;;6.50;92.82;100562.84;1779423;81;20994;-43
2022/11/12 03:47:44;;;;;;;43.83;19.82;;;;;;;6.49;93.02;100561.98;1779535;80;21448;-45
2022/11/12 03:50:11;;;;;;;31.48;18.37;;;;;;;6.53;92.75;100557.53;1779360;81;20991;-44
2022/11/12 03:52:37;;;;;;;;;;;;;;;6.56;92.71;100560.09;1782026;81;20990;-50
2022/11/12 03:55:05;;;;;;;33.78;17.85;;;;;;;6.48;92.64;100560.70;1778796;81;20104;-48
2022/11/12 03:57:30;;;;;;;;;;;;;;;6.51;92.93;100556.28;1781461;81;21007;-49
2022/11/12 03:59:56;;;;;;;33.33;18.32;;;;;;;6.47;93.00;100556.34;1778862;81;20132;-45
2022/11/12 04:02:24;;;;;;;35.68;18.00;;;;;;;6.49;93.09;100559.37;1778797;80;21034;-46
2022/11/12 04:10:17;;;;;;;32.65;17.90;;;;;;;6.54;93.05;100552.28;1778854;81;20972;-44
2022/11/12 04:15:27;;;;;;;31.07;16.23;;;;;;;6.59;92.56;100550.05;1778876;81;21416;-45
2022/11/12 04:23:21;;;;;;;26.02;15.15;;;;;;;6.60;92.40;100549.14;1778908;81;21492;-44
2022/11/12 04:28:31;;;;;;;24.27;14.87;;;;;;;6.62;92.23;100553.89;1778821;81;21456;-41
2022/11/12 04:30:57;;;;;;;27.17;15.25;;;;;;;6.57;92.32;100549.19;1779043;80;20983;-44
2022/11/12 04:33:22;;;;;;;29.32;14.75;;;;;;;6.58;92.31;100543.94;1778789;81;20979;-43
2022/11/12 04:35:48;;;;;;;25.90;14.73;;;;;;;6.56;92.94;100546.17;1778823;80;20968;-45
2022/11/12 04:38:14;;;;;;;27.58;15.40;;;;;;;6.58;92.62;100539.16;1778816;81;20968;-47
2022/11/12 04:46:08;;;;;;;31.02;14.90;;;;;;;6.54;92.20;100539.21;1761177;80;21456;-48
2022/11/12 04:48:34;;;;;;;23.52;13.85;;;;;;;6.54;92.21;100546.20;1787063;80;21049;-44
2022/11/12 04:52:03;;;;;;;26.02;14.50;;;;;;;6.51;92.40;100541.02;1787110;80;20959;-44
2022/11/12 04:53:34;;;;;;;25.12;14.45;;;;;;;6.50;92.37;100543.23;1782546;80;21480;-45
2022/11/12 04:56:00;;;;;;;27.07;14.23;;;;;;;6.50;92.32;100540.62;1787427;80;21003;-45
2022/11/12 04:58:25;;;;;;;29.70;15.13;;;;;;;6.49;92.50;100541.50;1787161;80;21030;-44
2022/11/12 05:00:51;;;;;;;27.52;14.83;;;;;;;6.50;92.41;100536.25;1787061;80;21018;-45
2022/11/12 05:03:17;;;;;;;25.43;14.90;;;;;;;6.49;92.38;100544.11;1787020;80;21011;-48
2022/11/12 05:05:43;;;;;;;27.02;14.65;;;;;;;6.49;92.71;100539.77;1786967;80;21022;-44
2022/11/12 05:08:09;;;;;;;31.48;15.40;;;;;;;6.51;92.67;100543.22;1787006;80;21022;-42
2022/11/12 05:10:35;;;;;;;28.17;14.23;;;;;;;6.57;92.60;100546.16;1787078;80;21026;-44
2022/11/12 05:13:00;;;;;;;26.52;13.78;;;;;;;6.59;92.41;100549.59;1787048;80;20987;-42
2022/11/12 05:15:26;;;;;;;30.05;14.95;;;;;;;6.56;92.74;100551.41;1787040;80;20998;-48
2022/11/12 05:17:52;;;;;;;27.67;14.35;;;;;;;6.60;92.51;100560.91;1787028;80;21049;-48
2022/11/12 05:20:18;;;;;;;24.65;14.40;;;;;;;6.54;92.91;100557.50;1787059;80;21476;-45
2022/11/12 05:22:43;;;;;;;28.10;15.43;;;;;;;6.58;92.85;100556.16;1787065;80;21473;-42
2022/11/12 05:25:09;;;;;;;23.92;13.98;;;;;;;6.59;92.81;100563.12;1787092;80;20986;-44
2022/11/12 05:27:35;;;;;;;33.98;14.90;;;;;;;6.58;92.67;100562.69;1787126;80;20947;-48
2022/11/12 05:30:02;;;;;;;24.82;15.03;;;;;;;6.50;93.22;100558.46;1787057;80;21025;-43
2022/11/12 05:32:28;;;;;;;25.12;14.10;;;;;;;6.50;93.10;100555.00;1787047;80;21496;-44
2022/11/12 05:34:54;;;;;;;31.73;15.55;;;;;;;6.51;93.95;100554.97;1785881;80;20999;-47
2022/11/12 05:37:20;;;;;;;27.05;14.80;;;;;;;6.53;93.49;100555.80;1785855;80;20994;-44
2022/11/12 05:39:46;;;;;;;27.40;14.63;;;;;;;6.53;93.78;100565.38;1787344;80;20987;-47
2022/11/12 05:42:14;;;;;;;24.98;15.08;;;;;;;6.51;94.08;100567.16;1784898;80;21030;-46
2022/11/12 05:44:39;;;;;;;;;;;;;;;6.53;94.00;100564.95;1774359;80;21457;-48
2022/11/12 05:47:05;;;;;;;27.82;15.38;;;;;;;6.51;94.14;100569.34;1771638;80;20104;-48
2022/11/12 05:49:31;;;;;;;28.60;15.45;;;;;;;6.58;94.10;100574.45;1771612;81;21043;-45
2022/11/12 05:51:57;;;;;;;26.68;15.40;;;;;;;6.57;94.05;100578.83;1771728;81;21519;-47
2022/11/12 05:54:23;;;;;;;30.27;16.20;;;;;;;6.57;94.02;100573.59;1771698;81;20999;-45
2022/11/12 05:56:52;;;;;;;31.85;16.00;;;;;;;6.60;94.49;100573.97;1771919;81;21027;-45
2022/11/12 05:59:17;;;;;;;28.10;15.45;;;;;;;6.58;94.46;100579.22;1771618;81;21630;-48
2022/11/12 06:01:43;;;;;;;36.48;17.02;;;;;;;6.55;95.13;100575.38;1771638;81;21019;-41
2022/11/12 06:04:13;;;;;;;25.97;15.30;;;;;;;6.58;95.04;100574.45;1771675;81;21000;-44
2022/11/12 06:06:40;;;;;;;30.27;16.20;;;;;;;6.61;95.42;100575.70;1770721;81;21031;-44
2022/11/12 06:09:07;;;;;;;37.45;17.35;;;;;;;6.57;95.72;100579.24;1771881;81;21485;-44
2022/11/12 06:11:33;;;;;;;32.03;16.42;;;;;;;6.57;95.93;100581.44;1771799;81;21007;-42
2022/11/12 06:14:00;;;;;;;34.23;17.35;;;;;;;6.60;95.73;100585.73;1771621;81;21011;-42
2022/11/12 06:16:25;;;;;;;35.60;17.62;;;;;;;6.62;96.21;100582.64;1771730;81;21493;-44
2022/11/12 06:18:51;;;;;;;32.75;16.20;;;;;;;6.66;95.98;100590.41;1771655;80;21035;-43
2022/11/12 06:21:26;;;;;;;31.93;17.30;;;;;;;6.68;95.80;100592.55;1771613;81;21019;-45
2022/11/12 06:23:53;;;;;;;31.95;17.12;;;;;;;6.62;96.35;100595.71;1770100;81;21039;-43
2022/11/12 06:26:20;;;;;;;32.10;17.10;;;;;;;6.62;96.48;100590.06;1771642;81;21003;-44
2022/11/12 06:28:48;;;;;;;39.80;18.42;;;;;;;6.64;97.16;100592.63;1771884;80;21059;-44
2022/11/12 06:31:15;;;;;;;38.75;17.35;;;;;;;6.67;97.58;100597.80;1771618;81;20992;-44
2022/11/12 06:33:41;;;;;;;32.05;18.10;;;;;;;6.67;97.82;100590.81;1771834;81;20991;-44
2022/11/12 06:36:09;;;;;;;31.57;18.20;;;;;;;6.73;97.02;100595.06;1771886;81;20964;-47
2022/11/12 06:38:38;;;;;;;39.13;17.48;;;;;;;6.72;97.65;100594.66;1771626;81;21046;-45
2022/11/12 06:41:05;;;;;;;37.45;18.05;;;;;;;6.73;97.62;100598.98;1771643;81;21039;-46
2022/11/12 06:43:33;;;;;;;42.38;18.82;;;;;;;6.78;97.13;100594.99;1775723;80;21061;-43
2022/11/12 06:46:01;;;;;;;40.50;18.50;;;;;;;6.76;97.41;100600.70;1778770;81;21003;-45
2022/11/12 06:48:28;;;;;;;34.35;17.98;;;;;;;6.74;97.81;100598.11;1778665;81;21061;-44
2022/11/12 06:50:55;;;;;;;44.00;19.02;;;;;;;6.75;97.61;100597.23;1778852;81;21073;-44
2022/11/12 06:53:21;;;;;;;38.87;18.37;;;;;;;6.73;98.32;100595.95;1778975;80;21014;-43
2022/11/12 06:55:47;;;;;;;30.88;17.85;;;;;;;6.73;98.24;100596.37;1778725;80;21023;-45
2022/11/12 06:58:12;;;;;;;37.50;18.85;;;;;;;6.77;97.95;100599.37;1778666;81;21042;-46
2022/11/12 07:00:38;;;;;;;37.60;19.75;;;;;;;6.73;98.55;100593.76;1778627;81;21014;-45
2022/11/12 07:03:08;;;;;;;41.15;19.67;;;;;;;6.78;98.96;100595.84;1778766;81;20992;-48
2022/11/12 07:05:38;;;;;;;35.68;18.30;;;;;;;6.87;98.77;100602.20;1778712;81;21519;-41
2022/11/12 07:08:05;;;;;;;37.88;19.67;;;;;;;6.88;98.59;100601.33;1778825;80;21007;-44
2022/11/12 07:10:31;;;;;;;40.80;20.17;;;;;;;6.90;98.20;100602.16;1778978;81;21448;-45
2022/11/12 07:12:57;;;;;;;37.35;19.37;;;;;;;6.98;97.69;100607.23;1778640;80;20990;-42
2022/11/12 07:15:23;;;;;;;41.03;19.67;;;;;;;6.95;98.73;100608.62;1778970;80;21003;-44
2022/11/12 07:17:49;;;;;;;38.15;19.32;;;;;;;6.98;98.73;100595.92;1778709;81;21035;-43
2022/11/12 07:20:15;;;;;;;43.85;18.27;;;;;;;7.02;98.18;100596.27;1778679;80;20973;-48
2022/11/12 07:22:41;;;;;;;34.98;19.55;;;;;;;7.02;98.79;100596.27;1778655;81;20986;-46
2022/11/12 07:25:08;;;;;;;33.90;18.82;;;;;;;7.05;98.37;100603.61;1778716;81;20968;-49
2022/11/12 07:27:33;;;;;;;37.00;18.82;;;;;;;7.10;98.61;100603.08;1778635;81;21046;-45
2022/11/12 07:29:59;;;;;;;35.10;18.45;;;;;;;7.12;98.91;100599.13;1778917;80;21433;-46
2022/11/12 07:32:25;;;;;;;35.05;19.98;;;;;;;7.18;98.47;100606.84;1778878;80;20991;-43
2022/11/12 07:34:50;;;;;;;34.88;19.40;;;;;;;7.19;98.59;100611.64;1778839;80;20968;-50
2022/11/12 07:37:16;;;;;;;43.58;20.15;;;;;;;7.23;98.59;100614.61;1778837;80;21031;-45
2022/11/12 07:39:42;;;;;;;39.80;19.60;;;;;;;7.23;98.13;100610.68;1778833;80;20975;-44
2022/11/12 07:42:08;;;;;;;50.67;22.58;;;;;;;7.22;98.70;100615.48;1778703;80;21131;-46
2022/11/12 07:44:34;;;;;;;39.88;20.20;;;;;;;7.25;98.28;100609.74;1786120;80;20991;-46
2022/11/12 07:46:59;;;;;;;50.83;21.07;;;;;;;7.25;99.17;100607.58;1787136;80;21518;-43
2022/11/12 07:49:25;;;;;;;34.95;18.35;;;;;;;7.26;99.34;100598.40;1787164;80;20997;-42
2022/11/12 07:51:51;;;;;;;36.08;18.87;;;;;;;7.22;99.83;100601.09;1787054;80;21088;-46
2022/11/12 07:54:16;;;;;;;38.42;21.00;;;;;;;7.22;99.78;100605.91;1787052;80;21017;-48
2022/11/12 07:56:42;;;;;;;40.95;20.62;;;;;;;7.19;99.53;100620.34;1786991;80;21030;-44
2022/11/12 07:59:08;;;;;;;42.53;21.42;;;;;;;7.21;98.79;100616.39;1787047;80;21412;-45
2022/11/12 08:01:38;;;;;;;34.27;18.87;;;;;;;7.22;99.06;100616.37;1787126;80;21026;-45
2022/11/12 08:04:08;;;;;;;34.83;20.88;;;;;;;7.32;98.44;100613.56;1787111;80;21038;-43
2022/11/12 08:06:35;;;;;;;37.13;20.30;;;;;;;7.14;99.33;100616.10;1787064;80;21042;-43
2022/11/12 08:09:05;;;;;;;35.30;19.33;;;;;;;7.17;98.89;100612.98;1787405;80;21007;-46
2022/11/12 08:11:32;;;;;;;33.25;20.80;;;;;;;7.17;98.99;100611.67;1787122;80;21030;-44
2022/11/12 08:13:58;;;;;;;35.45;20.48;;;;;;;7.11;98.90;100615.70;1787230;80;21023;-43
2022/11/12 08:16:24;;;;;;;35.10;18.12;;;;;;;7.09;99.03;100622.72;1786792;80;20967;-48
2022/11/12 08:18:50;;;;;;;31.87;20.27;;;;;;;7.05;99.63;100624.98;1781802;80;20995;-47
2022/11/12 08:21:17;;;;;;;33.20;19.82;;;;;;;7.08;99.26;100621.86;1755959;81;21010;-44
2022/11/12 08:23:43;;;;;;;;;;;;;;;7.08;100.00;100630.16;1758165;81;21530;-48
2022/11/12 08:26:16;;;;;;;31.23;19.12;;;;;;;7.05;99.18;100628.91;1756086;80;20141;-43
2022/11/12 08:28:43;;;;;;;33.53;20.77;;;;;;;7.09;98.43;100633.18;1756037;82;21489;-48
2022/11/12 08:31:16;;;;;;;33.45;20.92;;;;;;;7.10;98.61;100623.15;1755656;82;20975;-48
2022/11/12 08:33:42;;;;;;;35.08;20.92;;;;;;;7.09;99.17;100622.72;1755905;82;21002;-44
2022/11/12 08:36:14;;;;;;;34.58;21.40;;;;;;;7.20;98.26;100625.12;1756028;81;21047;-44
2022/11/12 08:38:41;;;;;;;32.90;20.52;;;;;;;7.20;98.36;100625.98;1756016;81;21055;-42
2022/11/12 08:41:10;;;;;;;35.17;21.00;;;;;;;7.26;98.59;100627.19;1756256;82;21042;-46
2022/11/12 08:43:38;;;;;;;31.48;20.02;;;;;;;7.34;97.79;100628.78;1755884;80;21043;-42
2022/11/12 08:46:04;;;;;;;33.80;20.37;;;;;;;7.27;98.18;100637.19;1726704;82;20976;-46
2022/11/12 08:48:32;;;;;;;34.27;20.12;;;;;;;7.34;98.42;100629.63;1756014;81;21485;-47
2022/11/12 08:51:02;;;;;;;37.00;19.57;;;;;;;7.46;97.75;100637.23;1755957;80;20968;-45
2022/11/12 08:53:27;;;;;;;27.15;18.25;;;;;;;7.51;97.71;100642.36;1755972;81;21476;-45
2022/11/12 08:55:55;;;;;;;33.10;20.27;;;;;;;7.54;97.44;100645.38;1755994;82;20971;-44
2022/11/12 08:58:21;;;;;;;;;;;;;;;7.60;97.27;100642.16;1758628;82;21003;-44
2022/11/12 09:00:49;;;;;;;32.78;21.23;;;;;;;7.60;96.99;100648.70;1756260;81;20163;-47
2022/11/12 09:03:18;;;;;;;40.03;22.40;;;;;;;7.52;97.36;100645.41;1755856;82;21472;-45
2022/11/12 09:05:44;;;;;;;36.90;22.00;;;;;;;7.60;97.20;100650.47;1756015;82;21003;-44
2022/11/12 09:08:14;;;;;;;31.27;20.00;;;;;;;7.54;97.51;100653.23;1756067;82;21476;-44
2022/11/12 09:10:40;;;;;;;28.52;19.62;;;;;;;7.49;97.22;100655.93;1756092;81;21050;-46
2022/11/12 09:13:06;;;;;;;34.00;20.50;;;;;;;7.61;96.90;100651.75;1756052;82;21571;-43
2022/11/12 09:15:32;;;;;;;29.70;20.08;;;;;;;7.68;96.43;100654.66;1755974;82;21046;-45
2022/11/12 09:18:02;;;;;;;32.98;20.00;;;;;;;7.62;96.43;100651.30;1755949;81;20967;-43
2022/11/12 09:20:30;;;;;;;30.17;19.10;;;;;;;7.65;96.76;100669.57;1755955;81;21147;-43
2022/11/12 09:23:06;;;;;;;33.00;20.82;;;;;;;7.66;96.88;100669.55;1756166;82;21472;-44
2022/11/12 09:25:33;;;;;;;33.15;20.17;;;;;;;7.61;96.91;100672.70;1755346;82;20996;-43
2022/11/12 09:28:12;;;;;;;36.68;20.48;;;;;;;7.65;96.53;100662.56;1756275;82;21006;-45
2022/11/12 09:30:47;;;;;;;28.70;19.15;;;;;;;7.57;97.02;100655.34;1756037;81;21007;-46
2022/11/12 09:33:24;;;;;;;36.98;20.17;;;;;;;7.61;96.98;100667.46;1756022;81;20972;-44
2022/11/12 09:35:51;;;;;;;32.53;20.40;;;;;;;7.65;96.75;100667.80;1756260;82;21042;-44
2022/11/12 09:38:17;;;;;;;38.13;25.07;;;;;;;7.72;96.40;100665.08;1756202;81;21116;-45
2022/11/12 09:40:55;;;;;;;35.70;21.40;;;;;;;7.74;95.90;100666.75;1756088;81;21059;-48
2022/11/12 09:43:44;;;;;;;34.23;19.60;;;;;;;7.75;95.84;100668.91;1755752;82;21020;-45
2022/11/12 09:46:32;;;;;;;34.92;20.45;;;;;;;7.76;95.58;100666.72;1746092;82;21532;-45
2022/11/12 09:49:24;;;;;;;34.25;20.20;;;;;;;7.75;95.63;100667.60;1755861;82;20995;-45
2022/11/12 09:52:03;;;;;;;33.13;21.02;;;;;;;7.67;95.54;100669.94;1756015;81;20999;-43
2022/11/12 09:54:31;;;;;;;31.00;20.60;;;;;;;7.73;95.69;100670.70;1726271;82;21011;-46
2022/11/12 09:56:57;;;;;;;33.95;20.05;;;;;;;7.81;95.77;100663.56;1755938;82;21504;-44
2022/11/12 09:59:32;;;;;;;34.48;20.70;;;;;;;7.70;95.31;100665.10;1756062;82;21007;-42
2022/11/12 10:02:06;;;;;;;37.80;20.85;;;;;;;7.81;95.52;100662.25;1754250;82;20991;-48
2022/11/12 10:05:27;;;;;;;32.70;21.40;;;;;;;7.81;95.09;100666.18;1746473;82;20964;-43
2022/11/12 10:08:04;;;;;;;39.20;21.33;;;;;;;7.84;94.74;100664.36;1756009;81;20992;-43
2022/11/12 10:10:57;;;;;;;28.67;19.67;;;;;;;7.73;95.31;100666.78;1756246;82;20981;-48
2022/11/12 10:13:40;;;;;;;36.60;22.07;;;;;;;7.84;95.10;100664.78;1753526;82;21003;-45
2022/11/12 10:16:48;;;;;;;35.70;22.00;;;;;;;7.73;95.01;100667.66;1754507;82;20964;-46
2022/11/12 10:19:52;;;;;;;36.13;21.80;;;;;;;7.82;95.31;100670.50;1756107;81;21157;-43
2022/11/12 10:22:46;;;;;;;36.30;22.42;;;;;;;7.88;95.03;100671.70;1755922;81;21547;-45
2022/11/12 10:25:16;;;;;;;36.88;21.57;;;;;;;7.86;94.77;100673.03;1754922;82;21464;-43
2022/11/12 10:27:44;;;;;;;36.05;20.82;;;;;;;7.94;95.08;100665.00;1755945;82;21002;-40
2022/11/12 10:30:17;;;;;;;33.73;20.45;;;;;;;8.02;94.66;100662.20;1756072;82;20999;-46
2022/11/12 10:32:45;;;;;;;33.45;21.73;;;;;;;7.91;94.63;100662.90;1755962;82;21023;-48
2022/11/12 10:35:15;;;;;;;35.63;21.80;;;;;;;7.94;94.69;100667.63;1755954;81;21011;-42
2022/11/12 10:38:03;;;;;;;32.00;20.15;;;;;;;7.91;94.81;100666.38;1754499;82;21559;-47
2022/11/12 10:40:37;;;;;;;37.33;23.32;;;;;;;8.02;94.71;100663.52;1756044;81;21027;-46
2022/11/12 10:43:19;;;;;;;31.70;21.40;;;;;;;8.02;94.50;100660.47;1755928;81;20995;-47
2022/11/12 10:45:48;;;;;;;48.25;22.32;;;;;;;8.05;94.54;100666.07;1755811;81;21070;-47
2022/11/12 10:48:32;;;;;;;36.68;22.42;;;;;;;8.08;94.28;100669.48;1754227;80;21149;-44
2022/11/12 10:50:59;;;;;;;38.42;22.32;;;;;;;8.16;94.60;100677.16;1754570;82;21050;-47
2022/11/12 10:53:38;;;;;;;32.08;21.15;;;;;;;8.25;94.46;100679.56;1754615;81;21022;-45
2022/11/12 10:56:09;;;;;;;35.90;22.13;;;;;;;8.26;93.52;100677.37;1754829;82;21011;-50
2022/11/12 10:58:35;;;;;;;41.58;22.17;;;;;;;8.17;92.97;100680.66;1749421;82;21098;-45
2022/11/12 11:01:06;;;;;;;36.77;22.75;;;;;;;8.17;93.24;100686.77;1755053;82;21051;-50
2022/11/12 11:05:29;;;;;;;36.58;22.58;;;;;;;8.25;93.43;100681.33;1856162;77;23450;-50
2022/11/12 11:07:54;;;;;;;34.95;21.93;;;;;;;8.22;93.42;100684.02;1829501;78;20979;-43
2022/11/12 11:10:30;;;;;;;30.25;19.02;;;;;;;8.18;93.26;100689.77;1829466;78;21491;-45
2022/11/12 11:13:26;;;;;;;35.70;19.73;;;;;;;8.04;93.63;100682.25;1829103;78;21026;-44
2022/11/12 11:16:05;;;;;;;27.58;19.20;;;;;;;8.09;93.75;100683.44;1829468;78;20986;-44
2022/11/12 11:18:34;;;;;;;31.40;19.07;;;;;;;8.11;93.54;100693.89;1829438;78;20967;-48
2022/11/12 11:21:35;;;;;;;38.23;20.52;;;;;;;8.18;93.45;100684.53;1829401;78;20970;-53
2022/11/12 11:24:35;;;;;;;26.80;17.70;;;;;;;8.15;93.42;100690.30;1829106;78;20966;-48
2022/11/12 11:27:23;;;;;;;29.23;18.77;;;;;;;8.13;93.25;100682.50;1829342;78;21844;-48
2022/11/12 11:30:10;;;;;;;32.30;19.62;;;;;;;8.16;92.89;100689.41;1829463;78;20978;-45
2022/11/12 11:33:03;;;;;;;37.93;21.82;;;;;;;8.14;92.99;100691.20;1827752;78;21018;-46
2022/11/12 11:36:05;;;;;;;27.07;17.73;;;;;;;8.21;93.14;100694.10;1828086;78;20962;-48
2022/11/12 11:38:49;;;;;;;31.40;18.17;;;;;;;8.22;92.75;100697.12;1829224;78;21005;-45
2022/11/12 11:41:34;;;;;;;28.83;18.15;;;;;;;8.27;92.87;100684.31;1827365;78;21002;-44
2022/11/12 11:44:20;;;;;;;28.38;18.62;;;;;;;8.33;92.49;100682.45;1829384;78;20971;-46
2022/11/12 11:47:15;;;;;;;28.35;18.12;;;;;;;8.34;92.58;100681.11;1829584;78;20982;-46
2022/11/12 11:50:08;;;;;;;31.40;18.25;;;;;;;8.27;92.30;100683.01;1828488;78;21017;-46
2022/11/12 11:53:06;;;;;;;27.77;17.90;;;;;;;8.25;92.49;100690.05;1829536;78;20971;-46
2022/11/12 11:55:48;;;;;;;31.55;19.87;;;;;;;8.31;92.61;100682.48;1829599;78;20994;-45
2022/11/12 11:58:26;;;;;;;31.55;20.27;;;;;;;8.26;92.52;100686.55;1829337;78;20939;-46